sensor_id;sensor_type;location;lat;lon;timestamp;pressure;altitude;pressure_sealevel;temperature;humidity
50011;BME280;35899;50.352;19.390;2023-02-13T00:01:12;99669.00;;;1.62;100.00
50011;BME280;35899;50.352;19.390;2023-02-13T00:03:40;99668.50;;;1.62;99.90
50011;BME280;35899;50.352;19.390;2023-02-13T00:06:08;99668.84;;;1.63;100.00
50011;BME280;35899;50.352;19.390;2023-02-13T00:08:36;99666.61;;;1.64;100.00
50011;BME280;35899;50.352;19.390;2023-02-13T00:11:05;99670.89;;;1.65;99.98
50011;BME280;35899;50.352;19.390;2023-02-13T00:13:33;99675.14;;;1.64;100.00
50011;BME280;35899;50.352;19.390;2023-02-13T00:16:03;99674.11;;;1.64;99.99
50011;BME280;35899;50.352;19.390;2023-02-13T00:18:36;99674.63;;;1.65;100.00
50011;BME280;35899;50.352;19.390;2023-02-13T00:21:06;99671.38;;;1.65;100.00
50011;BME280;35899;50.352;19.390;2023-02-13T00:23:36;99669.52;;;1.64;100.00
50011;BME280;35899;50.352;19.390;2023-02-13T00:26:07;99675.65;;;1.64;100.00
50011;BME280;35899;50.352;19.390;2023-02-13T00:28:35;99675.83;;;1.64;100.00
50011;BME280;35899;50.352;19.390;2023-02-13T00:31:18;99673.95;;;1.64;100.00
50011;BME280;35899;50.352;19.390;2023-02-13T00:33:47;99675.98;;;1.69;100.00
50011;BME280;35899;50.352;19.390;2023-02-13T00:36:18;99676.46;;;1.72;100.00
50011;BME280;35899;50.352;19.390;2023-02-13T00:38:47;99672.70;;;1.74;100.00
50011;BME280;35899;50.352;19.390;2023-02-13T00:41:16;99672.20;;;1.73;100.00
50011;BME280;35899;50.352;19.390;2023-02-13T00:43:45;99668.95;;;1.73;100.00
50011;BME280;35899;50.352;19.390;2023-02-13T00:46:14;99670.81;;;1.73;100.00
50011;BME280;35899;50.352;19.390;2023-02-13T00:48:43;99665.19;;;1.73;100.00
50011;BME280;35899;50.352;19.390;2023-02-13T00:51:11;99659.39;;;1.73;100.00
50011;BME280;35899;50.352;19.390;2023-02-13T00:53:39;99657.17;;;1.72;100.00
50011;BME280;35899;50.352;19.390;2023-02-13T00:56:07;99653.59;;;1.72;100.00
50011;BME280;35899;50.352;19.390;2023-02-13T00:58:36;99649.16;;;1.72;100.00
50011;BME280;35899;50.352;19.390;2023-02-13T01:01:04;99647.13;;;1.70;100.00
50011;BME280;35899;50.352;19.390;2023-02-13T01:03:32;99645.95;;;1.68;100.00
50011;BME280;35899;50.352;19.390;2023-02-13T01:06:00;99643.21;;;1.68;100.00
50011;BME280;35899;50.352;19.390;2023-02-13T01:08:28;99644.73;;;1.69;100.00
50011;BME280;35899;50.352;19.390;2023-02-13T01:10:56;99640.13;;;1.69;100.00
50011;BME280;35899;50.352;19.390;2023-02-13T01:13:25;99642.02;;;1.68;100.00
50011;BME280;35899;50.352;19.390;2023-02-13T01:15:53;99642.19;;;1.68;100.00
50011;BME280;35899;50.352;19.390;2023-02-13T01:18:21;99640.14;;;1.67;100.00
50011;BME280;35899;50.352;19.390;2023-02-13T01:21:05;99642.53;;;1.67;100.00
50011;BME280;35899;50.352;19.390;2023-02-13T01:23:35;99638.42;;;1.68;100.00
50011;BME280;35899;50.352;19.390;2023-02-13T01:26:05;99632.10;;;1.71;100.00
50011;BME280;35899;50.352;19.390;2023-02-13T01:28:34;99628.85;;;1.72;100.00
50011;BME280;35899;50.352;19.390;2023-02-13T01:31:02;99626.27;;;1.73;100.00
50011;BME280;35899;50.352;19.390;2023-02-13T01:33:30;99625.58;;;1.75;100.00
50011;BME280;35899;50.352;19.390;2023-02-13T01:35:58;99626.10;;;1.74;100.00
50011;BME280;35899;50.352;19.390;2023-02-13T01:38:27;99623.20;;;1.73;100.00
50011;BME280;35899;50.352;19.390;2023-02-13T01:40:55;99623.71;;;1.73;100.00
50011;BME280;35899;50.352;19.390;2023-02-13T01:43:23;99622.86;;;1.72;100.00
50011;BME280;35899;50.352;19.390;2023-02-13T01:45:55;99619.98;;;1.71;100.00
50011;BME280;35899;50.352;19.390;2023-02-13T01:48:25;99617.92;;;1.71;100.00
50011;BME280;35899;50.352;19.390;2023-02-13T01:50:55;99617.06;;;1.72;100.00
50011;BME280;35899;50.352;19.390;2023-02-13T01:53:37;99615.02;;;1.72;100.00
50011;BME280;35899;50.352;19.390;2023-02-13T01:56:13;99613.30;;;1.74;100.00
50011;BME280;35899;50.352;19.390;2023-02-13T01:58:43;99609.20;;;1.75;100.00
50011;BME280;35899;50.352;19.390;2023-02-13T02:01:12;99605.25;;;1.78;100.00
50011;BME280;35899;50.352;19.390;2023-02-13T02:03:45;99604.23;;;1.79;100.00
50011;BME280;35899;50.352;19.390;2023-02-13T02:06:31;99598.74;;;1.80;100.00
50011;BME280;35899;50.352;19.390;2023-02-13T02:09:07;99603.35;;;1.81;100.00
50011;BME280;35899;50.352;19.390;2023-02-13T02:11:47;99604.53;;;1.82;100.00
50011;BME280;35899;50.352;19.390;2023-02-13T02:14:18;99601.95;;;1.83;100.00
50011;BME280;35899;50.352;19.390;2023-02-13T02:16:47;99603.67;;;1.82;100.00
50011;BME280;35899;50.352;19.390;2023-02-13T02:19:43;99603.53;;;1.81;100.00
50011;BME280;35899;50.352;19.390;2023-02-13T02:27:59;99595.11;;;1.87;100.00
50011;BME280;35899;50.352;19.390;2023-02-13T02:30:45;99589.14;;;1.87;100.00
50011;BME280;35899;50.352;19.390;2023-02-13T02:33:40;99588.45;;;1.87;100.00
50011;BME280;35899;50.352;19.390;2023-02-13T02:36:27;99589.62;;;1.88;100.00
50011;BME280;35899;50.352;19.390;2023-02-13T02:44:35;99585.50;;;1.92;100.00
50011;BME280;35899;50.352;19.390;2023-02-13T02:50:17;99577.52;;;1.86;100.00
50011;BME280;35899;50.352;19.390;2023-02-13T02:55:42;99591.17;;;1.87;100.00
50011;BME280;35899;50.352;19.390;2023-02-13T03:00:56;99592.69;;;1.91;100.00
50011;BME280;35899;50.352;19.390;2023-02-13T03:03:28;99597.13;;;1.92;100.00
50011;BME280;35899;50.352;19.390;2023-02-13T03:05:58;99595.59;;;1.91;100.00
50011;BME280;35899;50.352;19.390;2023-02-13T03:08:28;99597.83;;;1.89;100.00
50011;BME280;35899;50.352;19.390;2023-02-13T03:10:56;99595.75;;;1.91;100.00
50011;BME280;35899;50.352;19.390;2023-02-13T03:16:05;99594.04;;;1.92;100.00
50011;BME280;35899;50.352;19.390;2023-02-13T03:18:39;99597.46;;;1.91;100.00
50011;BME280;35899;50.352;19.390;2023-02-13T03:21:16;99597.99;;;1.89;100.00
50011;BME280;35899;50.352;19.390;2023-02-13T03:23:59;99592.17;;;1.90;100.00
50011;BME280;35899;50.352;19.390;2023-02-13T03:26:45;99594.21;;;1.92;100.00
50011;BME280;35899;50.352;19.390;2023-02-13T03:34:22;99597.59;;;1.97;100.00
50011;BME280;35899;50.352;19.390;2023-02-13T03:36:59;99593.49;;;1.96;100.00
50011;BME280;35899;50.352;19.390;2023-02-13T03:42:05;99595.35;;;1.99;100.00
50011;BME280;35899;50.352;19.390;2023-02-13T03:44:43;99593.63;;;2.01;100.00
50011;BME280;35899;50.352;19.390;2023-02-13T03:47:14;99592.24;;;2.02;100.00
50011;BME280;35899;50.352;19.390;2023-02-13T03:49:46;99591.21;;;2.02;100.00
50011;BME280;35899;50.352;19.390;2023-02-13T03:52:30;99592.92;;;2.01;100.00
50011;BME280;35899;50.352;19.390;2023-02-13T03:55:06;99595.67;;;2.00;100.00
50011;BME280;35899;50.352;19.390;2023-02-13T03:57:38;99593.98;;;2.00;100.00
50011;BME280;35899;50.352;19.390;2023-02-13T04:00:11;99593.96;;;2.01;100.00
50011;BME280;35899;50.352;19.390;2023-02-13T04:03:22;99597.37;;;2.03;100.00
50011;BME280;35899;50.352;19.390;2023-02-13T04:05:56;99600.77;;;2.05;100.00
50011;BME280;35899;50.352;19.390;2023-02-13T04:08:26;99600.90;;;2.09;100.00
50011;BME280;35899;50.352;19.390;2023-02-13T04:13:57;99603.45;;;2.09;100.00
50011;BME280;35899;50.352;19.390;2023-02-13T04:18:59;99601.05;;;2.12;100.00
50011;BME280;35899;50.352;19.390;2023-02-13T04:21:32;99597.11;;;2.11;100.00
50011;BME280;35899;50.352;19.390;2023-02-13T04:24:00;99599.00;;;2.12;100.00
50011;BME280;35899;50.352;19.390;2023-02-13T04:26:40;99595.77;;;2.10;100.00
50011;BME280;35899;50.352;19.390;2023-02-13T04:29:08;99598.51;;;2.08;100.00
50011;BME280;35899;50.352;19.390;2023-02-13T04:31:36;99599.23;;;2.04;100.00
50011;BME280;35899;50.352;19.390;2023-02-13T04:34:04;99600.27;;;2.03;100.00
50011;BME280;35899;50.352;19.390;2023-02-13T04:36:32;99601.64;;;2.03;100.00
50011;BME280;35899;50.352;19.390;2023-02-13T04:39:00;99599.59;;;2.04;100.00
50011;BME280;35899;50.352;19.390;2023-02-13T04:41:28;99598.52;;;2.06;100.00
50011;BME280;35899;50.352;19.390;2023-02-13T04:43:56;99594.43;;;2.07;100.00
50011;BME280;35899;50.352;19.390;2023-02-13T04:46:24;99595.09;;;2.09;100.00
50011;BME280;35899;50.352;19.390;2023-02-13T04:48:52;99597.13;;;2.10;100.00
50011;BME280;35899;50.352;19.390;2023-02-13T04:51:20;99598.16;;;2.10;100.00
50011;BME280;35899;50.352;19.390;2023-02-13T04:53:48;99596.96;;;2.10;100.00
50011;BME280;35899;50.352;19.390;2023-02-13T04:56:16;99596.42;;;2.12;100.00
50011;BME280;35899;50.352;19.390;2023-02-13T04:58:46;99598.81;;;2.11;100.00
50011;BME280;35899;50.352;19.390;2023-02-13T05:01:15;99598.47;;;2.12;100.00
50011;BME280;35899;50.352;19.390;2023-02-13T05:03:43;99599.66;;;2.13;100.00
50011;BME280;35899;50.352;19.390;2023-02-13T05:06:11;99598.80;;;2.13;100.00
50011;BME280;35899;50.352;19.390;2023-02-13T05:08:39;99595.05;;;2.13;100.00
50011;BME280;35899;50.352;19.390;2023-02-13T05:11:07;99595.23;;;2.12;100.00
50011;BME280;35899;50.352;19.390;2023-02-13T05:13:35;99591.65;;;2.12;100.00
50011;BME280;35899;50.352;19.390;2023-02-13T05:16:03;99587.71;;;2.13;100.00
50011;BME280;35899;50.352;19.390;2023-02-13T05:18:31;99582.39;;;2.15;100.00
50011;BME280;35899;50.352;19.390;2023-02-13T05:20:59;99578.46;;;2.17;100.00
50011;BME280;35899;50.352;19.390;2023-02-13T05:23:27;99577.27;;;2.17;100.00
50011;BME280;35899;50.352;19.390;2023-02-13T05:25:55;99579.14;;;2.18;100.00
50011;BME280;35899;50.352;19.390;2023-02-13T05:28:23;99580.17;;;2.17;100.00
50011;BME280;35899;50.352;19.390;2023-02-13T05:30:51;99582.22;;;2.15;100.00
50011;BME280;35899;50.352;19.390;2023-02-13T05:33:19;99588.55;;;2.14;100.00
50011;BME280;35899;50.352;19.390;2023-02-13T05:35:47;99588.91;;;2.12;100.00
50011;BME280;35899;50.352;19.390;2023-02-13T05:38:15;99591.63;;;2.13;100.00
50011;BME280;35899;50.352;19.390;2023-02-13T05:40:43;99594.20;;;2.13;100.00
50011;BME280;35899;50.352;19.390;2023-02-13T05:43:11;99598.97;;;2.14;100.00
50011;BME280;35899;50.352;19.390;2023-02-13T05:45:39;99597.77;;;2.17;100.00
50011;BME280;35899;50.352;19.390;2023-02-13T05:48:07;99601.31;;;2.20;100.00
50011;BME280;35899;50.352;19.390;2023-02-13T05:50:35;99598.74;;;2.20;100.00
50011;BME280;35899;50.352;19.390;2023-02-13T05:53:03;99599.26;;;2.21;100.00
50011;BME280;35899;50.352;19.390;2023-02-13T05:55:31;99597.04;;;2.21;100.00
50011;BME280;35899;50.352;19.390;2023-02-13T05:57:59;99593.78;;;2.21;100.00
50011;BME280;35899;50.352;19.390;2023-02-13T06:00:27;99592.07;;;2.21;100.00
50011;BME280;35899;50.352;19.390;2023-02-13T06:02:55;99596.34;;;2.22;100.00
50011;BME280;35899;50.352;19.390;2023-02-13T06:05:23;99594.31;;;2.20;100.00
50011;BME280;35899;50.352;19.390;2023-02-13T06:07:51;99597.37;;;2.21;100.00
50011;BME280;35899;50.352;19.390;2023-02-13T06:10:19;99604.52;;;2.23;100.00
50011;BME280;35899;50.352;19.390;2023-02-13T06:12:47;99606.89;;;2.25;100.00
50011;BME280;35899;50.352;19.390;2023-02-13T06:15:15;99607.57;;;2.26;100.00
50011;BME280;35899;50.352;19.390;2023-02-13T06:17:43;99611.33;;;2.27;100.00
50011;BME280;35899;50.352;19.390;2023-02-13T06:20:11;99612.66;;;2.28;100.00
50011;BME280;35899;50.352;19.390;2023-02-13T06:22:39;99611.12;;;2.30;100.00
50011;BME280;35899;50.352;19.390;2023-02-13T06:25:07;99609.57;;;2.31;100.00
50011;BME280;35899;50.352;19.390;2023-02-13T06:27:36;99614.86;;;2.32;100.00
50011;BME280;35899;50.352;19.390;2023-02-13T06:30:05;99614.70;;;2.31;100.00
50011;BME280;35899;50.352;19.390;2023-02-13T06:32:33;99614.87;;;2.31;100.00
50011;BME280;35899;50.352;19.390;2023-02-13T06:35:01;99615.02;;;2.33;100.00
50011;BME280;35899;50.352;19.390;2023-02-13T06:37:32;99611.76;;;2.35;100.00
50011;BME280;35899;50.352;19.390;2023-02-13T06:40:00;99608.63;;;2.40;100.00
50011;BME280;35899;50.352;19.390;2023-02-13T06:42:28;99607.41;;;2.43;100.00
50011;BME280;35899;50.352;19.390;2023-02-13T06:44:56;99605.81;;;2.48;100.00
50011;BME280;35899;50.352;19.390;2023-02-13T06:47:24;99614.98;;;2.53;100.00
50011;BME280;35899;50.352;19.390;2023-02-13T06:49:52;99609.34;;;2.54;100.00
50011;BME280;35899;50.352;19.390;2023-02-13T06:52:20;99612.56;;;2.56;100.00
50011;BME280;35899;50.352;19.390;2023-02-13T06:54:48;99614.93;;;2.59;100.00
50011;BME280;35899;50.352;19.390;2023-02-13T06:57:16;99616.76;;;2.63;100.00
50011;BME280;35899;50.352;19.390;2023-02-13T06:59:44;99610.71;;;2.69;100.00
50011;BME280;35899;50.352;19.390;2023-02-13T07:02:12;99614.05;;;2.76;100.00
50011;BME280;35899;50.352;19.390;2023-02-13T07:04:40;99617.41;;;2.82;100.00
50011;BME280;35899;50.352;19.390;2023-02-13T07:07:08;99622.48;;;2.87;100.00
50011;BME280;35899;50.352;19.390;2023-02-13T07:09:36;99621.71;;;2.94;100.00
50011;BME280;35899;50.352;19.390;2023-02-13T07:12:04;99621.83;;;2.98;100.00
50011;BME280;35899;50.352;19.390;2023-02-13T07:14:32;99627.95;;;3.02;100.00
50011;BME280;35899;50.352;19.390;2023-02-13T07:17:00;99621.02;;;3.08;100.00
50011;BME280;35899;50.352;19.390;2023-02-13T07:19:28;99624.05;;;3.13;100.00
50011;BME280;35899;50.352;19.390;2023-02-13T07:21:56;99622.77;;;3.19;100.00
50011;BME280;35899;50.352;19.390;2023-02-13T07:24:23;99622.87;;;3.25;100.00
50011;BME280;35899;50.352;19.390;2023-02-13T07:26:52;99622.95;;;3.31;100.00
50011;BME280;35899;50.352;19.390;2023-02-13T07:29:20;99614.80;;;3.39;100.00
50011;BME280;35899;50.352;19.390;2023-02-13T07:31:48;99617.91;;;3.48;100.00
50011;BME280;35899;50.352;19.390;2023-02-13T07:34:16;99621.17;;;3.60;100.00
50011;BME280;35899;50.352;19.390;2023-02-13T07:36:44;99619.72;;;3.66;100.00
50011;BME280;35899;50.352;19.390;2023-02-13T07:39:11;99620.92;;;3.77;100.00
50011;BME280;35899;50.352;19.390;2023-02-13T07:41:39;99619.01;;;3.89;100.00
50011;BME280;35899;50.352;19.390;2023-02-13T07:44:07;99618.57;;;3.96;100.00
50011;BME280;35899;50.352;19.390;2023-02-13T07:46:36;99614.34;;;4.02;100.00
50011;BME280;35899;50.352;19.390;2023-02-13T07:49:04;99609.98;;;4.07;100.00
50011;BME280;35899;50.352;19.390;2023-02-13T07:51:32;99608.86;;;4.13;100.00
50011;BME280;35899;50.352;19.390;2023-02-13T07:54:01;99610.38;;;4.14;100.00
50011;BME280;35899;50.352;19.390;2023-02-13T07:56:29;99607.23;;;4.08;100.00
50011;BME280;35899;50.352;19.390;2023-02-13T07:58:57;99602.91;;;4.10;100.00
50011;BME280;35899;50.352;19.390;2023-02-13T08:01:25;99600.83;;;4.12;100.00
50011;BME280;35899;50.352;19.390;2023-02-13T08:03:53;99600.73;;;4.18;100.00
50011;BME280;35899;50.352;19.390;2023-02-13T08:06:21;99592.52;;;4.27;100.00
50011;BME280;35899;50.352;19.390;2023-02-13T08:08:49;99591.04;;;4.33;100.00
50011;BME280;35899;50.352;19.390;2023-02-13T08:11:23;99593.50;;;4.38;100.00
50011;BME280;35899;50.352;19.390;2023-02-13T08:13:53;99594.19;;;4.47;100.00
50011;BME280;35899;50.352;19.390;2023-02-13T08:16:21;99597.97;;;4.56;100.00
50011;BME280;35899;50.352;19.390;2023-02-13T08:18:49;99602.59;;;4.57;100.00
50011;BME280;35899;50.352;19.390;2023-02-13T08:21:16;99599.81;;;4.68;100.00
50011;BME280;35899;50.352;19.390;2023-02-13T08:23:45;99602.56;;;4.77;100.00
50011;BME280;35899;50.352;19.390;2023-02-13T08:26:13;99602.61;;;4.82;100.00
50011;BME280;35899;50.352;19.390;2023-02-13T08:28:41;99598.81;;;4.84;100.00
50011;BME280;35899;50.352;19.390;2023-02-13T08:31:10;99596.30;;;4.81;100.00
50011;BME280;35899;50.352;19.390;2023-02-13T08:33:38;99602.23;;;4.84;100.00
50011;BME280;35899;50.352;19.390;2023-02-13T08:36:06;99605.13;;;4.85;100.00
50011;BME280;35899;50.352;19.390;2023-02-13T08:38:34;99606.21;;;4.99;100.00
50011;BME280;35899;50.352;19.390;2023-02-13T08:41:02;99601.92;;;5.08;100.00
50011;BME280;35899;50.352;19.390;2023-02-13T08:43:30;99606.70;;;5.17;100.00
50011;BME280;35899;50.352;19.390;2023-02-13T08:45:59;99606.47;;;5.20;100.00
50011;BME280;35899;50.352;19.390;2023-02-13T08:48:28;99604.40;;;5.21;100.00
50011;BME280;35899;50.352;19.390;2023-02-13T08:50:56;99605.09;;;5.21;100.00
50011;BME280;35899;50.352;19.390;2023-02-13T08:53:24;99606.58;;;5.15;100.00
50011;BME280;35899;50.352;19.390;2023-02-13T08:55:56;99610.85;;;5.24;100.00
50011;BME280;35899;50.352;19.390;2023-02-13T08:58:24;99608.34;;;5.28;100.00
50011;BME280;35899;50.352;19.390;2023-02-13T09:00:53;99609.51;;;5.30;100.00
50011;BME280;35899;50.352;19.390;2023-02-13T09:03:21;99616.69;;;5.32;100.00
50011;BME280;35899;50.352;19.390;2023-02-13T09:05:49;99622.02;;;5.39;100.00
50011;BME280;35899;50.352;19.390;2023-02-13T09:08:17;99616.83;;;5.41;100.00
50011;BME280;35899;50.352;19.390;2023-02-13T09:10:45;99613.52;;;5.42;100.00
50011;BME280;35899;50.352;19.390;2023-02-13T09:13:13;99612.73;;;5.48;100.00
50011;BME280;35899;50.352;19.390;2023-02-13T09:15:41;99607.41;;;5.55;100.00
50011;BME280;35899;50.352;19.390;2023-02-13T09:18:09;99612.69;;;5.72;100.00
50011;BME280;35899;50.352;19.390;2023-02-13T09:20:37;99609.69;;;5.90;100.00
50011;BME280;35899;50.352;19.390;2023-02-13T09:23:05;99609.84;;;5.99;100.00
50011;BME280;35899;50.352;19.390;2023-02-13T09:25:33;99612.33;;;6.03;100.00
50011;BME280;35899;50.352;19.390;2023-02-13T09:28:01;99610.80;;;6.02;100.00
50011;BME280;35899;50.352;19.390;2023-02-13T09:30:29;99606.10;;;6.04;99.95
50011;BME280;35899;50.352;19.390;2023-02-13T09:32:57;99600.63;;;6.04;99.86
50011;BME280;35899;50.352;19.390;2023-02-13T09:35:25;99599.98;;;6.09;100.00
50011;BME280;35899;50.352;19.390;2023-02-13T09:37:53;99601.37;;;6.08;99.90
50011;BME280;35899;50.352;19.390;2023-02-13T09:40:28;99599.90;;;6.12;100.00
50011;BME280;35899;50.352;19.390;2023-02-13T09:43:06;99600.59;;;6.19;99.93
50011;BME280;35899;50.352;19.390;2023-02-13T09:45:35;99603.66;;;6.20;99.56
50011;BME280;35899;50.352;19.390;2023-02-13T09:48:04;99597.91;;;6.29;99.13
50011;BME280;35899;50.352;19.390;2023-02-13T09:50:33;99597.16;;;6.32;99.32
50011;BME280;35899;50.352;19.390;2023-02-13T09:53:03;99603.41;;;6.30;99.75
50011;BME280;35899;50.352;19.390;2023-02-13T09:55:50;99606.36;;;6.29;100.00
50011;BME280;35899;50.352;19.390;2023-02-13T09:58:39;99603.67;;;6.26;99.85
50011;BME280;35899;50.352;19.390;2023-02-13T10:03:54;99591.69;;;6.04;99.64
50011;BME280;35899;50.352;19.390;2023-02-13T10:06:35;99591.54;;;5.87;99.56
50011;BME280;35899;50.352;19.390;2023-02-13T10:10:01;99591.14;;;5.68;99.48
50011;BME280;35899;50.352;19.390;2023-02-13T10:15:17;99593.80;;;5.49;100.00
50011;BME280;35899;50.352;19.390;2023-02-13T10:17:55;99590.27;;;5.46;100.00
50011;BME280;35899;50.352;19.390;2023-02-13T10:20:33;99589.23;;;5.47;100.00
50011;BME280;35899;50.352;19.390;2023-02-13T10:26:51;99582.34;;;5.40;100.00
50011;BME280;35899;50.352;19.390;2023-02-13T10:29:05;99578.97;;;5.44;100.00
50011;BME280;35899;50.352;19.390;2023-02-13T10:31:35;99570.42;;;5.43;100.00
50011;BME280;35899;50.352;19.390;2023-02-13T10:34:11;99569.59;;;5.35;100.00
50011;BME280;35899;50.352;19.390;2023-02-13T10:36:44;99568.82;;;5.30;100.00
50011;BME280;35899;50.352;19.390;2023-02-13T10:39:22;99563.52;;;5.22;100.00
50011;BME280;35899;50.352;19.390;2023-02-13T11:04:09;99534.31;;;5.46;100.00
50011;BME280;35899;50.352;19.390;2023-02-13T11:09:25;99530.98;;;5.42;100.00
50011;BME280;35899;50.352;19.390;2023-02-13T11:11:53;99529.02;;;5.44;100.00
50011;BME280;35899;50.352;19.390;2023-02-13T11:14:23;99524.89;;;5.45;100.00
50011;BME280;35899;50.352;19.390;2023-02-13T11:22:11;99522.04;;;5.84;100.00
50011;BME280;35899;50.352;19.390;2023-02-13T11:24:41;99521.27;;;5.80;100.00
50011;BME280;35899;50.352;19.390;2023-02-13T11:27:23;99524.52;;;5.75;100.00
50011;BME280;35899;50.352;19.390;2023-02-13T11:29:59;99522.29;;;5.74;100.00
50011;BME280;35899;50.352;19.390;2023-02-13T11:32:30;99519.90;;;5.74;100.00
50011;BME280;35899;50.352;19.390;2023-02-13T11:35:20;99517.74;;;5.64;100.00
50011;BME280;35899;50.352;19.390;2023-02-13T11:40:46;99515.41;;;5.46;100.00
50011;BME280;35899;50.352;19.390;2023-02-13T11:43:26;99516.52;;;5.43;100.00
50011;BME280;35899;50.352;19.390;2023-02-13T11:46:19;99517.05;;;5.49;100.00
50011;BME280;35899;50.352;19.390;2023-02-13T11:51:50;99521.43;;;5.31;100.00
50011;BME280;35899;50.352;19.390;2023-02-13T11:57:21;99515.67;;;5.20;100.00
50011;BME280;35899;50.352;19.390;2023-02-13T11:59:50;99512.98;;;5.18;100.00
50011;BME280;35899;50.352;19.390;2023-02-13T12:02:21;99506.84;;;5.24;100.00
50011;BME280;35899;50.352;19.390;2023-02-13T12:04:52;99503.27;;;5.30;100.00
50011;BME280;35899;50.352;19.390;2023-02-13T12:07:29;99500.98;;;5.33;100.00
50011;BME280;35899;50.352;19.390;2023-02-13T12:13:13;99483.77;;;5.83;100.00
50011;BME280;35899;50.352;19.390;2023-02-13T12:15:45;99489.89;;;6.13;100.00
50011;BME280;35899;50.352;19.390;2023-02-13T12:18:23;99492.64;;;6.12;100.00
50011;BME280;35899;50.352;19.390;2023-02-13T12:21:08;99491.02;;;5.95;100.00
50011;BME280;35899;50.352;19.390;2023-02-13T12:23:59;99492.14;;;5.78;100.00
50011;BME280;35899;50.352;19.390;2023-02-13T12:32:29;99491.17;;;5.40;100.00
50011;BME280;35899;50.352;19.390;2023-02-13T12:37:58;99484.45;;;5.42;100.00
50011;BME280;35899;50.352;19.390;2023-02-13T12:40:45;99479.85;;;5.47;100.00
50011;BME280;35899;50.352;19.390;2023-02-13T12:44:19;99469.27;;;5.78;100.00
50011;BME280;35899;50.352;19.390;2023-02-13T13:00:16;99461.42;;;6.71;100.00
50011;BME280;35899;50.352;19.390;2023-02-13T13:03:09;99460.72;;;6.82;100.00
50011;BME280;35899;50.352;19.390;2023-02-13T13:08:57;99463.27;;;6.67;100.00
50011;BME280;35899;50.352;19.390;2023-02-13T13:11:59;99461.45;;;6.46;100.00
50011;BME280;35899;50.352;19.390;2023-02-13T13:14:45;99466.67;;;6.25;100.00
50011;BME280;35899;50.352;19.390;2023-02-13T13:17:32;99464.11;;;6.12;100.00
50011;BME280;35899;50.352;19.390;2023-02-13T13:22:59;99462.38;;;5.93;100.00
50011;BME280;35899;50.352;19.390;2023-02-13T13:28:12;99475.35;;;5.69;100.00
50011;BME280;35899;50.352;19.390;2023-02-13T13:30:44;99469.52;;;5.56;100.00
50011;BME280;35899;50.352;19.390;2023-02-13T13:33:19;99466.33;;;5.46;100.00
50011;BME280;35899;50.352;19.390;2023-02-13T13:36:08;99461.92;;;5.36;100.00
50011;BME280;35899;50.352;19.390;2023-02-13T13:39:05;99463.64;;;5.29;100.00
50011;BME280;35899;50.352;19.390;2023-02-13T13:41:49;99459.34;;;5.22;100.00
50011;BME280;35899;50.352;19.390;2023-02-13T13:47:22;99465.23;;;5.13;100.00
50011;BME280;35899;50.352;19.390;2023-02-13T13:49:53;99463.70;;;5.05;100.00
50011;BME280;35899;50.352;19.390;2023-02-13T13:52:23;99471.23;;;4.98;100.00
50011;BME280;35899;50.352;19.390;2023-02-13T13:54:52;99472.16;;;4.95;100.00
50011;BME280;35899;50.352;19.390;2023-02-13T14:07:48;99469.48;;;4.60;100.00
50011;BME280;35899;50.352;19.390;2023-02-13T14:25:46;99458.30;;;4.54;100.00
50011;BME280;35899;50.352;19.390;2023-02-13T14:28:22;99447.07;;;4.50;100.00
50011;BME280;35899;50.352;19.390;2023-02-13T14:30:52;99443.88;;;4.55;100.00
50011;BME280;35899;50.352;19.390;2023-02-13T14:33:33;99448.77;;;4.67;100.00
50011;BME280;35899;50.352;19.390;2023-02-13T14:36:19;99452.01;;;4.75;100.00
50011;BME280;35899;50.352;19.390;2023-02-13T14:39:03;99455.63;;;4.75;100.00
50011;BME280;35899;50.352;19.390;2023-02-13T14:44:21;99447.30;;;4.63;100.00
50011;BME280;35899;50.352;19.390;2023-02-13T14:46:51;99441.35;;;4.60;100.00
50011;BME280;35899;50.352;19.390;2023-02-13T14:49:26;99442.34;;;4.54;100.00
50011;BME280;35899;50.352;19.390;2023-02-13T14:51:58;99440.54;;;4.43;100.00
50011;BME280;35899;50.352;19.390;2023-02-13T14:57:22;99439.79;;;4.20;100.00
50011;BME280;35899;50.352;19.390;2023-02-13T14:59:59;99427.84;;;4.09;100.00
50011;BME280;35899;50.352;19.390;2023-02-13T15:02:38;99425.30;;;4.08;100.00
50011;BME280;35899;50.352;19.390;2023-02-13T15:05:13;99426.90;;;4.05;100.00
50011;BME280;35899;50.352;19.390;2023-02-13T15:08:04;99435.91;;;4.00;100.00
50011;BME280;35899;50.352;19.390;2023-02-13T15:10:41;99433.73;;;3.98;100.00
50011;BME280;35899;50.352;19.390;2023-02-13T15:13:19;99427.58;;;3.97;100.00
50011;BME280;35899;50.352;19.390;2023-02-13T15:16:10;99429.67;;;3.95;100.00
50011;BME280;35899;50.352;19.390;2023-02-13T15:18:46;99425.43;;;3.93;100.00
50011;BME280;35899;50.352;19.390;2023-02-13T15:21:19;99420.17;;;3.89;100.00
50011;BME280;35899;50.352;19.390;2023-02-13T15:23:49;99426.35;;;3.89;100.00
50011;BME280;35899;50.352;19.390;2023-02-13T15:26:20;99433.26;;;3.86;100.00
50011;BME280;35899;50.352;19.390;2023-02-13T15:29:00;99435.23;;;3.82;100.00
50011;BME280;35899;50.352;19.390;2023-02-13T15:31:31;99436.86;;;3.77;100.00
50011;BME280;35899;50.352;19.390;2023-02-13T15:33:59;99434.77;;;3.68;100.00
50011;BME280;35899;50.352;19.390;2023-02-13T15:36:34;99426.46;;;3.65;100.00
50011;BME280;35899;50.352;19.390;2023-02-13T15:39:06;99426.16;;;3.62;100.00
50011;BME280;35899;50.352;19.390;2023-02-13T15:41:39;99428.96;;;3.59;100.00
50011;BME280;35899;50.352;19.390;2023-02-13T15:44:18;99432.60;;;3.56;100.00
50011;BME280;35899;50.352;19.390;2023-02-13T15:46:48;99428.46;;;3.48;100.00
50011;BME280;35899;50.352;19.390;2023-02-13T15:49:21;99427.55;;;3.42;100.00